Time;durP1;ratioP1;P1;durP2;ratioP2;P2;SDS_P1;SDS_P2;PMS_P1;PMS_P2;Temp;Humidity;BMP_temperature;BMP_pressure;BME280_temperature;BME280_humidity;BME280_pressure;Samples;Min_cycle;Max_cycle;Signal;HPM_P1;HPM_P2
2024/01/03 00:01:42;;;;;;;35.50;15.60;;;;;;;4.53;100.00;98236.23;216067;1287;139591;-86
2024/01/03 00:06:42;;;;;;;26.20;13.00;;;;;;;4.53;100.00;98228.58;216306;1286;138844;-87
2024/01/03 00:11:45;;;;;;;26.40;12.70;;;;;;;4.54;100.00;98218.32;215949;1287;139858;-86
2024/01/03 00:16:45;;;;;;;30.40;16.20;;;;;;;4.56;100.00;98209.98;216587;1287;138566;-88
2024/01/03 00:21:46;;;;;;;44.20;17.50;;;;;;;4.56;100.00;98203.45;216792;1288;140036;-87
2024/01/03 00:26:48;;;;;;;31.10;14.40;;;;;;;4.60;100.00;98196.29;218537;1286;138880;-87
2024/01/03 00:31:48;;;;;;;22.30;12.40;;;;;;;4.62;100.00;98188.50;216976;1286;140194;-87
2024/01/03 00:36:55;;;;;;;19.60;10.50;;;;;;;4.62;100.00;98185.93;214628;1287;138827;-87
2024/01/03 00:41:57;;;;;;;20.70;10.50;;;;;;;4.63;100.00;98177.29;214023;1287;139774;-88
2024/01/03 00:46:58;;;;;;;24.60;11.10;;;;;;;4.65;100.00;98171.21;214306;1286;138533;-89
2024/01/03 00:52:00;;;;;;;24.70;12.30;;;;;;;4.67;100.00;98164.45;213977;1286;139772;-88
2024/01/03 00:57:02;;;;;;;22.10;11.00;;;;;;;4.67;100.00;98155.48;214360;1286;139471;-88
2024/01/03 01:02:04;;;;;;;20.90;10.70;;;;;;;4.69;100.00;98154.86;214043;1287;139988;-89
2024/01/03 01:07:05;;;;;;;20.20;11.40;;;;;;;4.71;100.00;98148.32;214259;1286;139166;-88
2024/01/03 01:12:05;;;;;;;21.20;10.60;;;;;;;4.74;100.00;98147.39;213902;1286;139842;-88
2024/01/03 01:17:06;;;;;;;23.00;13.60;;;;;;;4.75;100.00;98137.48;214557;1288;138702;-89
2024/01/03 01:22:07;;;;;;;24.30;12.00;;;;;;;4.77;100.00;98131.58;214038;1290;139728;-89
2024/01/03 01:27:08;;;;;;;20.80;11.80;;;;;;;4.79;100.00;98124.64;214839;1288;138795;-89
2024/01/03 01:32:09;;;;;;;19.70;10.50;;;;;;;4.83;100.00;98121.98;214928;1286;140775;-88
2024/01/03 01:37:10;;;;;;;22.40;12.60;;;;;;;4.89;100.00;98111.91;215516;1288;138897;-90
2024/01/03 01:42:11;;;;;;;21.30;12.00;;;;;;;4.93;100.00;98105.05;214928;1287;140372;-90
2024/01/03 01:47:12;;;;;;;20.20;11.10;;;;;;;4.97;100.00;98093.50;215680;1289;138483;-90
2024/01/03 01:52:15;;;;;;;20.70;11.10;;;;;;;5.00;100.00;98080.80;214985;1291;139872;-90
2024/01/03 01:57:17;;;;;;;22.70;13.00;;;;;;;5.03;100.00;98073.23;215526;1286;139046;-90
2024/01/03 02:02:18;;;;;;;20.60;11.00;;;;;;;5.06;100.00;98064.42;215256;1288;140314;-91
2024/01/03 02:07:22;;;;;;;22.60;12.40;;;;;;;5.09;100.00;98060.27;217158;1286;138890;-91
2024/01/03 02:12:29;;;;;;;21.40;11.30;;;;;;;5.12;100.00;98051.46;217714;1287;139907;-89
2024/01/03 02:17:31;;;;;;;18.80;11.60;;;;;;;5.17;100.00;98046.30;216442;1287;108615;-88
2024/01/03 02:22:32;;;;;;;23.00;12.10;;;;;;;5.22;100.00;98049.85;213866;1287;139714;-89
2024/01/03 02:27:33;;;;;;;23.30;13.40;;;;;;;5.26;100.00;98042.49;214456;1286;138868;-89
2024/01/03 02:32:34;;;;;;;23.00;12.90;;;;;;;5.28;100.00;98033.13;214034;1288;140210;-89
2024/01/03 02:37:35;;;;;;;23.60;13.50;;;;;;;5.30;100.00;98031.57;214274;1286;139365;-90
2024/01/03 02:42:37;;;;;;;23.70;13.30;;;;;;;5.31;100.00;98028.13;213682;1288;139527;-91
2024/01/03 02:47:37;;;;;;;20.40;11.80;;;;;;;5.33;100.00;98013.55;214306;1287;107017;-90
2024/01/03 02:52:39;;;;;;;18.90;10.20;;;;;;;5.36;100.00;98007.91;213752;1288;139635;-91
2024/01/03 02:57:41;;;;;;;25.10;13.00;;;;;;;5.38;100.00;98006.11;213885;1288;139091;-90
2024/01/03 03:02:42;;;;;;;21.40;11.80;;;;;;;5.40;100.00;98001.73;213727;1286;140296;-91
2024/01/03 03:07:42;;;;;;;24.30;12.70;;;;;;;5.43;100.00;97992.82;214256;1288;139160;-91
2024/01/03 03:12:43;;;;;;;24.60;13.50;;;;;;;5.44;100.00;97983.63;214195;1290;140066;-91
2024/01/03 03:17:44;;;;;;;29.70;13.30;;;;;;;5.47;100.00;97982.59;215283;1286;97913;-90
2024/01/03 03:22:45;;;;;;;20.00;11.30;;;;;;;5.50;100.00;97981.23;214764;1289;140298;-90
2024/01/03 03:27:46;;;;;;;21.40;12.20;;;;;;;5.54;100.00;97970.14;215118;1286;139284;-90
2024/01/03 03:32:47;;;;;;;21.00;11.70;;;;;;;5.57;100.00;97970.80;214885;1289;139592;-90
2024/01/03 03:37:48;;;;;;;18.50;10.50;;;;;;;5.64;100.00;97968.02;215434;1288;139290;-90
2024/01/03 03:42:50;;;;;;;16.70;9.80;;;;;;;5.68;100.00;97967.21;214896;1288;140099;-90
2024/01/03 03:47:51;;;;;;;24.00;12.00;;;;;;;5.71;100.00;97967.11;215589;1287;97775;-90
2024/01/03 03:52:52;;;;;;;18.50;10.40;;;;;;;5.73;100.00;97962.65;217396;1286;140193;-90
2024/01/03 03:57:52;;;;;;;21.00;11.90;;;;;;;5.75;100.00;97957.94;218277;1286;139570;-90
2024/01/03 04:02:53;;;;;;;26.00;12.20;;;;;;;5.78;100.00;97952.85;215141;1286;139756;-89
2024/01/03 04:07:53;;;;;;;21.20;11.70;;;;;;;5.80;100.00;97952.77;214766;1288;138866;-89
2024/01/03 04:12:58;;;;;;;23.90;13.20;;;;;;;5.85;100.00;97951.00;214227;1287;139681;-90
2024/01/03 04:17:58;;;;;;;20.10;12.30;;;;;;;5.91;100.00;97947.52;214969;1288;98026;-89
2024/01/03 04:22:59;;;;;;;38.90;16.20;;;;;;;5.90;100.00;97940.20;214196;1289;139687;-88
2024/01/03 04:28:01;;;;;;;23.70;13.60;;;;;;;5.91;100.00;97935.35;214940;1291;138552;-86
2024/01/03 04:33:02;;;;;;;22.70;11.80;;;;;;;5.95;100.00;97936.33;214888;1288;140398;-86
2024/01/03 04:38:03;;;;;;;18.20;11.30;;;;;;;5.99;100.00;97933.17;214186;1288;139451;-87
2024/01/03 04:43:03;;;;;;;19.10;11.20;;;;;;;6.03;100.00;97935.39;213905;1288;140009;-87
2024/01/03 04:48:04;;;;;;;19.80;11.60;;;;;;;6.08;100.00;97933.08;214364;1286;97945;-87
2024/01/03 04:53:05;;;;;;;18.90;11.00;;;;;;;6.11;100.00;97933.10;213734;1289;139403;-87
2024/01/03 04:58:06;;;;;;;18.20;11.20;;;;;;;6.16;100.00;97932.04;215042;1287;138647;-88
2024/01/03 05:03:06;;;;;;;22.40;11.20;;;;;;;6.23;100.00;97935.64;214806;1288;140919;-88
2024/01/03 05:08:07;;;;;;;22.50;12.60;;;;;;;6.29;100.00;97935.79;215253;1288;138824;-89
2024/01/03 05:13:07;;;;;;;19.00;11.60;;;;;;;6.36;100.00;97933.66;214710;1288;139969;-89
2024/01/03 05:18:08;;;;;;;17.90;10.80;;;;;;;6.44;100.00;97931.00;215267;1288;97916;-90
2024/01/03 05:23:09;;;;;;;17.20;9.80;;;;;;;6.51;100.00;97930.65;214445;1286;140041;-89
2024/01/03 05:28:09;;;;;;;17.50;10.50;;;;;;;6.59;100.00;97931.49;215288;1286;138403;-88
2024/01/03 05:33:10;;;;;;;17.60;10.60;;;;;;;6.67;100.00;97929.44;215447;1287;139671;-89
2024/01/03 05:38:10;;;;;;;16.90;10.00;;;;;;;6.74;100.00;97930.60;218436;1286;139246;-89
2024/01/03 05:43:11;;;;;;;19.00;10.50;;;;;;;6.82;100.00;97925.40;217649;1288;139877;-90
2024/01/03 05:48:11;;;;;;;17.70;10.20;;;;;;;6.87;100.00;97929.86;214759;1291;97942;-88
2024/01/03 05:53:12;;;;;;;18.80;10.70;;;;;;;6.89;100.00;97938.67;214152;1288;140270;-88
2024/01/03 05:58:12;;;;;;;18.40;9.60;;;;;;;6.91;100.00;97945.98;214350;1287;138572;-89
2024/01/03 06:03:13;;;;;;;22.80;14.60;;;;;;;6.91;100.00;97949.56;213667;1288;139425;-89
2024/01/03 06:08:13;;;;;;;23.60;15.90;;;;;;;6.94;100.00;97953.81;214560;1288;139068;-89
2024/01/03 06:13:15;;;;;;;14.90;9.20;;;;;;;6.97;100.00;97960.64;214023;1288;139418;-89
2024/01/03 06:18:16;;;;;;;13.50;8.60;;;;;;;7.01;100.00;97959.50;214361;1287;106628;-89
2024/01/03 06:23:16;;;;;;;13.40;7.30;;;;;;;7.07;100.00;97966.68;213944;1291;138943;-90
2024/01/03 06:28:17;;;;;;;6.70;3.10;;;;;;;7.13;100.00;97972.98;215253;1288;138383;-90
2024/01/03 06:33:18;;;;;;;6.60;2.60;;;;;;;7.19;100.00;97980.02;215010;1288;139195;-88
2024/01/03 06:38:18;;;;;;;9.10;4.60;;;;;;;7.28;100.00;97991.52;215045;1288;138376;-87
2024/01/03 06:43:19;;;;;;;5.60;1.80;;;;;;;7.37;100.00;97998.89;215090;1286;139294;-92
2024/01/03 06:48:20;;;;;;;4.20;1.60;;;;;;;7.45;100.00;98002.74;215526;1286;138538;-92
2024/01/03 06:53:20;;;;;;;2.10;1.30;;;;;;;7.53;100.00;98015.61;215521;1287;140874;-90
2024/01/03 06:58:21;;;;;;;3.00;1.10;;;;;;;7.58;100.00;98023.42;215543;1287;138489;-89
2024/01/03 07:03:22;;;;;;;2.10;1.10;;;;;;;7.64;100.00;98028.41;215675;1290;139565;-88
2024/01/03 07:08:22;;;;;;;4.40;1.90;;;;;;;7.68;100.00;98029.52;216627;1288;138402;-89
2024/01/03 07:13:23;;;;;;;4.60;1.90;;;;;;;7.72;100.00;98033.77;215731;1291;139320;-92
2024/01/03 07:18:24;;;;;;;10.40;2.40;;;;;;;7.75;100.00;98038.56;217176;1288;138767;-91
2024/01/03 07:23:24;;;;;;;8.00;1.60;;;;;;;7.77;100.00;98043.30;217941;1291;139787;-89
2024/01/03 07:28:25;;;;;;;3.20;1.50;;;;;;;7.80;100.00;98038.86;217709;1288;138518;-88
2024/01/03 07:33:25;;;;;;;2.50;1.40;;;;;;;7.83;100.00;98047.59;214854;1290;140661;-90
2024/01/03 07:38:26;;;;;;;7.70;2.00;;;;;;;7.85;100.00;98046.54;214335;1291;138937;-89
2024/01/03 07:43:27;;;;;;;6.00;1.40;;;;;;;7.88;100.00;98049.77;213737;1291;139625;-90
2024/01/03 07:48:28;;;;;;;2.30;1.30;;;;;;;7.89;100.00;98051.16;214612;1291;138648;-89
2024/01/03 07:53:28;;;;;;;6.20;1.50;;;;;;;7.92;100.00;98058.23;214083;1289;139375;-87
2024/01/03 07:58:29;;;;;;;4.60;1.80;;;;;;;7.93;100.00;98056.02;214299;1289;138220;-88
2024/01/03 08:03:30;;;;;;;7.50;1.70;;;;;;;7.95;100.00;98063.36;213814;1291;139252;-89
2024/01/03 08:08:30;;;;;;;3.50;1.50;;;;;;;7.97;100.00;98068.33;214644;1291;138801;-89
2024/01/03 08:13:31;;;;;;;7.00;1.60;;;;;;;7.99;100.00;98069.23;214143;1290;139952;-89
2024/01/03 08:18:31;;;;;;;2.40;1.10;;;;;;;8.03;100.00;98075.35;214448;1286;138354;-88
2024/01/03 08:23:32;;;;;;;4.30;1.50;;;;;;;8.07;100.00;98068.78;214214;1290;139305;-89
2024/01/03 08:28:36;;;;;;;5.20;1.70;;;;;;;8.10;100.00;98072.95;215344;1290;138280;-88
2024/01/03 08:33:37;;;;;;;4.80;1.50;;;;;;;8.15;100.00;98075.30;214932;1289;138642;-88
2024/01/03 08:38:38;;;;;;;5.80;1.60;;;;;;;8.20;100.00;98076.10;215478;1289;138774;-88
2024/01/03 08:43:42;;;;;;;5.80;1.50;;;;;;;8.23;100.00;98080.81;215088;1287;138995;-89
2024/01/03 08:48:44;;;;;;;5.40;1.50;;;;;;;8.28;100.00;98082.70;216160;1288;160250;-88
2024/01/03 08:53:45;;;;;;;5.40;1.60;;;;;;;8.34;100.00;98094.97;215429;1286;139405;-87
2024/01/03 08:58:47;;;;;;;3.70;1.30;;;;;;;8.40;100.00;98099.79;216272;1291;138158;-89
2024/01/03 09:03:48;;;;;;;5.20;1.60;;;;;;;8.44;100.00;98100.17;216303;1286;139727;-88
2024/01/03 09:08:54;;;;;;;4.90;1.50;;;;;;;8.49;100.00;98106.81;218204;1286;139414;-89
2024/01/03 09:13:56;;;;;;;3.30;1.20;;;;;;;8.54;100.00;98108.38;216219;1290;139419;-88
2024/01/03 09:18:57;;;;;;;3.50;1.40;;;;;;;8.59;100.00;98113.77;214173;1289;138515;-86
2024/01/03 09:23:59;;;;;;;5.60;1.30;;;;;;;8.64;100.00;98122.30;213922;1288;139709;-86
2024/01/03 09:28:59;;;;;;;3.40;1.40;;;;;;;8.66;100.00;98125.95;214321;1291;138386;-85
2024/01/03 09:34:00;;;;;;;6.20;1.30;;;;;;;8.68;100.00;98131.23;213881;1291;140407;-85
2024/01/03 09:39:01;;;;;;;5.60;1.30;;;;;;;8.73;100.00;98135.05;214246;1288;138330;-86
2024/01/03 09:44:02;;;;;;;6.30;1.50;;;;;;;8.76;100.00;98135.08;213755;1286;139495;-90
2024/01/03 09:49:03;;;;;;;5.60;1.70;;;;;;;8.77;100.00;98135.69;213538;1288;1020071;-86
2024/01/03 09:54:07;;;;;;;5.20;1.40;;;;;;;8.78;100.00;98141.84;213823;1286;140711;-86
2024/01/03 09:59:08;;;;;;;5.80;1.40;;;;;;;8.80;100.00;98146.60;214537;1286;138664;-88
2024/01/03 10:04:09;;;;;;;4.00;1.20;;;;;;;8.76;100.00;98152.48;213718;1286;140577;-88
2024/01/03 10:09:14;;;;;;;6.40;1.40;;;;;;;8.70;100.00;98155.63;215712;1291;138423;-90
2024/01/03 10:14:18;;;;;;;6.70;1.90;;;;;;;8.68;100.00;98154.66;215716;1286;139421;-90
2024/01/03 10:19:19;;;;;;;8.60;1.70;;;;;;;8.67;100.00;98161.30;216663;1287;140198;-89
2024/01/03 10:24:27;;;;;;;5.70;1.40;;;;;;;8.70;100.00;98165.66;214883;1289;139675;-88
2024/01/03 10:29:33;;;;;;;5.70;1.40;;;;;;;8.76;100.00;98161.71;215624;1291;104195;-88
2024/01/03 10:34:33;;;;;;;5.50;1.30;;;;;;;8.80;100.00;98170.10;215015;1289;139704;-88
2024/01/03 10:39:36;;;;;;;6.30;1.30;;;;;;;8.86;100.00;98170.95;215336;1286;138855;-89
2024/01/03 10:44:39;;;;;;;3.60;1.50;;;;;;;8.91;100.00;98161.91;214978;1288;139985;-89
2024/01/03 10:49:39;;;;;;;7.20;1.60;;;;;;;8.95;100.00;98158.61;216978;1286;138380;-88
2024/01/03 10:54:44;;;;;;;10.00;2.90;;;;;;;9.01;100.00;98158.50;217849;1286;139370;-88
2024/01/03 11:00:01;;;;;;;9.00;3.00;;;;;;;9.07;100.00;98155.41;216482;1288;138087;-88
2024/01/03 11:05:15;;;;;;;24.50;8.60;;;;;;;9.11;100.00;98151.10;214153;1297;139104;-86
2024/01/03 11:10:48;;;;;;;7.50;2.70;;;;;;;9.17;100.00;98149.42;214273;1287;140432;-87
2024/01/03 11:15:49;;;;;;;7.10;2.00;;;;;;;9.22;100.00;98144.52;214184;1292;138202;-87
2024/01/03 11:20:49;;;;;;;7.10;2.00;;;;;;;9.27;100.00;98144.97;213767;1290;139820;-87
2024/01/03 11:25:51;;;;;;;5.00;2.00;;;;;;;9.30;100.00;98139.42;214437;1286;138450;-86
2024/01/03 11:30:51;;;;;;;6.70;1.80;;;;;;;9.33;100.00;98127.68;213888;1291;139932;-86
2024/01/03 11:35:52;;;;;;;6.90;2.00;;;;;;;9.37;100.00;98126.56;214448;1292;97986;-85
2024/01/03 11:40:53;;;;;;;6.30;1.60;;;;;;;9.41;100.00;98132.53;213261;1288;139513;-87
2024/01/03 11:46:11;;;;;;;6.70;1.70;;;;;;;9.44;100.00;98131.29;214307;1291;138207;-87
2024/01/03 11:51:26;;;;;;;4.30;1.20;;;;;;;9.48;100.00;98129.64;213912;1286;139437;-87
2024/01/03 11:56:31;;;;;;;7.30;1.50;;;;;;;9.52;100.00;98133.17;215150;1288;138428;-85
2024/01/03 12:01:33;;;;;;;4.00;1.30;;;;;;;9.53;100.00;98124.89;214486;1288;139805;-86
2024/01/03 12:06:33;;;;;;;5.20;1.60;;;;;;;9.54;100.00;98121.02;214968;1289;138897;-85
2024/01/03 12:11:35;;;;;;;5.20;1.40;;;;;;;9.56;100.00;98121.70;214899;1291;140161;-86
2024/01/03 12:16:49;;;;;;;5.40;1.40;;;;;;;9.57;100.00;98123.23;214997;1291;138267;-85
2024/01/03 12:21:57;;;;;;;5.10;1.30;;;;;;;9.59;100.00;98122.34;214420;1286;139427;-85
2024/01/03 12:26:57;;;;;;;7.80;1.70;;;;;;;9.61;100.00;98121.44;215264;1287;138527;-85
2024/01/03 12:32:08;;;;;;;7.40;1.80;;;;;;;9.62;100.00;98125.11;215523;1288;139650;-84
2024/01/03 12:37:09;;;;;;;4.40;1.40;;;;;;;9.66;100.00;98117.94;218048;1287;138437;-84
2024/01/03 12:42:13;;;;;;;4.70;1.60;;;;;;;9.70;100.00;98117.85;217627;1286;139429;-83
2024/01/03 12:47:14;;;;;;;3.90;1.50;;;;;;;9.74;100.00;98118.95;214750;1287;138607;-83
2024/01/03 12:52:25;;;;;;;3.50;1.60;;;;;;;9.79;100.00;98121.64;213921;1288;139439;-84
2024/01/03 12:57:26;;;;;;;10.90;1.90;;;;;;;9.81;100.00;98119.80;214453;1288;138352;-85
2024/01/03 13:02:30;;;;;;;6.30;2.20;;;;;;;9.82;100.00;98116.57;213831;1291;139699;-84
2024/01/03 13:07:30;;;;;;;9.20;3.00;;;;;;;9.84;100.00;98113.84;214214;1287;138938;-84
2024/01/03 13:12:31;;;;;;;5.40;1.70;;;;;;;9.86;100.00;98113.96;214037;1289;139606;-85
2024/01/03 13:17:31;;;;;;;5.60;1.80;;;;;;;9.88;100.00;98115.15;214307;1288;106250;-84
2024/01/03 13:22:32;;;;;;;10.60;1.90;;;;;;;9.91;100.00;98118.07;213844;1286;139858;-84
2024/01/03 13:27:32;;;;;;;8.20;1.80;;;;;;;9.94;100.00;98118.40;214279;1288;138736;-84
2024/01/03 13:32:33;;;;;;;7.90;1.70;;;;;;;9.95;100.00;98123.25;214319;1287;140079;-84
2024/01/03 13:37:34;;;;;;;5.50;1.50;;;;;;;9.96;100.00;98124.16;214646;1291;138780;-85
2024/01/03 13:42:35;;;;;;;5.40;1.60;;;;;;;9.98;100.00;98128.02;214894;1288;139364;-84
2024/01/03 13:47:35;;;;;;;7.70;1.70;;;;;;;9.99;100.00;98125.73;215476;1288;98172;-83
2024/01/03 13:52:37;;;;;;;7.30;2.00;;;;;;;9.98;100.00;98128.60;214772;1287;139830;-83
2024/01/03 13:57:38;;;;;;;8.60;2.10;;;;;;;9.97;100.00;98127.75;215175;1286;138957;-84
2024/01/03 14:02:38;;;;;;;11.80;2.10;;;;;;;9.96;100.00;98126.20;215012;1287;139423;-84
2024/01/03 14:07:38;;;;;;;11.60;3.50;;;;;;;9.96;100.00;98125.80;215476;1287;138925;-83
2024/01/03 14:12:39;;;;;;;13.00;2.60;;;;;;;9.97;100.00;98132.23;214787;1287;139769;-83
2024/01/03 14:17:40;;;;;;;11.20;3.10;;;;;;;9.95;100.00;98129.43;216190;1289;97618;-84
2024/01/03 14:22:42;;;;;;;12.20;3.20;;;;;;;9.95;100.00;98131.17;217743;1286;139778;-83
2024/01/03 14:27:43;;;;;;;11.70;3.30;;;;;;;9.93;100.00;98136.39;217906;1286;139022;-83
2024/01/03 14:32:44;;;;;;;13.40;3.10;;;;;;;9.92;100.00;98136.73;213793;1287;140592;-82
2024/01/03 14:37:44;;;;;;;11.80;2.40;;;;;;;9.90;100.00;98136.23;214396;1286;138985;-83
2024/01/03 14:42:48;;;;;;;7.10;2.20;;;;;;;9.87;100.00;98135.66;213713;1291;140571;-82
2024/01/03 14:47:48;;;;;;;13.50;3.30;;;;;;;9.83;100.00;98132.70;214052;1286;107974;-83
2024/01/03 14:52:49;;;;;;;10.20;2.60;;;;;;;9.81;100.00;98135.73;213662;1291;140336;-83
2024/01/03 14:57:50;;;;;;;12.10;2.90;;;;;;;9.79;100.00;98140.09;214335;1291;138466;-82
2024/01/03 15:02:51;;;;;;;9.90;2.60;;;;;;;9.76;100.00;98137.27;213936;1291;139793;-83
2024/01/03 15:07:52;;;;;;;13.40;3.70;;;;;;;9.73;100.00;98137.16;214363;1288;139756;-83
2024/01/03 15:12:52;;;;;;;8.90;2.90;;;;;;;9.71;100.00;98139.56;214137;1286;140054;-83
2024/01/03 15:17:53;;;;;;;8.00;2.80;;;;;;;9.67;100.00;98146.23;214382;1286;97951;-82
2024/01/03 15:22:55;;;;;;;6.00;2.30;;;;;;;9.61;100.00;98139.70;213975;1288;139089;-83
2024/01/03 15:27:59;;;;;;;8.70;2.40;;;;;;;9.56;100.00;98146.23;215279;1286;139203;-83
2024/01/03 15:33:00;;;;;;;7.40;2.70;;;;;;;9.52;100.00;98147.05;214856;1287;140207;-83
2024/01/03 15:38:01;;;;;;;9.90;3.20;;;;;;;9.46;100.00;98139.48;215770;1286;138781;-83
2024/01/03 15:43:02;;;;;;;13.00;4.40;;;;;;;9.41;100.00;98144.52;214931;1286;139390;-83
2024/01/03 15:48:02;;;;;;;13.60;5.30;;;;;;;9.36;100.00;98135.38;215677;1286;97702;-84
2024/01/03 15:53:02;;;;;;;12.70;5.40;;;;;;;9.31;100.00;98139.10;215014;1286;139783;-84
2024/01/03 15:58:04;;;;;;;10.20;4.50;;;;;;;9.27;100.00;98128.66;215511;1288;139537;-84
2024/01/03 16:03:05;;;;;;;13.20;5.30;;;;;;;9.22;100.00;98132.38;215985;1286;139770;-84
2024/01/03 16:08:06;;;;;;;15.00;6.30;;;;;;;9.20;100.00;98124.74;218367;1286;138828;-83
2024/01/03 16:13:08;;;;;;;17.40;6.00;;;;;;;9.16;100.00;98122.23;217173;1286;139989;-84
2024/01/03 16:18:09;;;;;;;17.10;7.70;;;;;;;9.13;100.00;98119.46;214650;1291;97954;-85
2024/01/03 16:23:09;;;;;;;27.00;12.10;;;;;;;9.09;100.00;98115.94;214180;1288;139598;-85
2024/01/03 16:28:10;;;;;;;27.20;11.90;;;;;;;9.03;100.00;98117.15;214463;1288;139258;-84
2024/01/03 16:33:10;;;;;;;43.20;19.00;;;;;;;8.96;100.00;98116.80;214058;1286;139977;-85
2024/01/03 16:38:12;;;;;;;34.70;16.10;;;;;;;8.91;100.00;98112.91;214225;1288;139372;-84
2024/01/03 16:43:12;;;;;;;31.60;15.60;;;;;;;8.88;100.00;98109.48;213987;1286;139575;-84
2024/01/03 16:48:12;;;;;;;24.20;11.20;;;;;;;8.84;100.00;98112.13;214377;1290;105233;-83
2024/01/03 16:53:13;;;;;;;24.70;10.10;;;;;;;8.81;100.00;98109.52;213970;1290;140104;-84
2024/01/03 16:58:13;;;;;;;18.10;8.60;;;;;;;8.78;100.00;98112.16;214641;1286;138533;-84
2024/01/03 17:03:14;;;;;;;17.70;8.90;;;;;;;8.75;100.00;98108.39;214145;1286;139606;-84
2024/01/03 17:08:15;;;;;;;19.70;9.70;;;;;;;8.72;100.00;98107.34;215044;1286;138586;-84
2024/01/03 17:13:15;;;;;;;24.10;10.10;;;;;;;8.69;100.00;98100.91;215257;1286;139449;-84
2024/01/03 17:18:15;;;;;;;27.50;11.50;;;;;;;8.64;100.00;98100.12;215832;1286;97933;-86
2024/01/03 17:23:16;;;;;;;26.40;11.10;;;;;;;8.60;100.00;98093.70;215291;1286;139313;-87
2024/01/03 17:28:17;;;;;;;27.10;11.10;;;;;;;8.57;100.00;98096.50;215477;1289;138682;-86
2024/01/03 17:33:18;;;;;;;22.90;9.40;;;;;;;8.54;100.00;98094.44;215084;1286;140542;-85
2024/01/03 17:38:20;;;;;;;25.10;9.50;;;;;;;8.51;100.00;98095.36;215638;1287;138836;-87
2024/01/03 17:43:22;;;;;;;22.20;9.50;;;;;;;8.50;100.00;98094.53;215102;1289;139852;-87
2024/01/03 17:48:22;;;;;;;21.60;9.40;;;;;;;8.47;100.00;98093.64;216524;1286;138809;-87
2024/01/03 17:53:23;;;;;;;22.60;9.90;;;;;;;8.45;100.00;98096.39;218003;1286;139668;-88
2024/01/03 17:58:26;;;;;;;18.20;8.30;;;;;;;8.45;100.00;98092.55;217749;1287;138535;-90
2024/01/03 18:03:32;;;;;;;20.50;8.20;;;;;;;8.45;100.00;98093.83;214077;1288;139446;-88
2024/01/03 18:08:34;;;;;;;25.00;9.70;;;;;;;8.43;100.00;98094.09;214681;1291;138852;-87
2024/01/03 18:13:35;;;;;;;26.00;11.00;;;;;;;8.41;100.00;98099.36;214091;1288;140386;-88
2024/01/03 18:18:37;;;;;;;23.60;11.40;;;;;;;8.41;100.00;98099.14;214607;1288;140338;-86
2024/01/03 18:23:38;;;;;;;19.20;7.60;;;;;;;8.39;100.00;98103.02;213846;1286;140053;-85
2024/01/03 18:28:40;;;;;;;17.90;6.30;;;;;;;8.37;100.00;98111.51;214432;1287;137860;-86
2024/01/03 18:33:44;;;;;;;18.50;7.10;;;;;;;8.36;100.00;98117.63;214029;1286;140247;-88
2024/01/03 18:38:44;;;;;;;13.10;5.90;;;;;;;8.35;100.00;98116.39;214469;1286;137408;-90
2024/01/03 18:43:45;;;;;;;18.60;5.40;;;;;;;8.34;100.00;98117.81;213826;1289;141102;-88
2024/01/03 18:48:45;;;;;;;16.10;6.10;;;;;;;8.33;100.00;98116.48;214654;1288;139261;-88
2024/01/03 18:53:48;;;;;;;13.00;5.60;;;;;;;8.32;100.00;98119.27;214612;1288;139985;-88
2024/01/03 18:58:51;;;;;;;16.10;5.60;;;;;;;8.32;100.00;98120.84;215639;1287;139767;-89
2024/01/03 19:03:52;;;;;;;12.50;5.60;;;;;;;8.31;100.00;98126.25;215063;1287;139914;-87
2024/01/03 19:08:55;;;;;;;15.20;6.10;;;;;;;8.29;100.00;98127.37;215813;1286;138576;-87
2024/01/03 19:13:56;;;;;;;15.10;6.70;;;;;;;8.29;100.00;98126.45;215211;1290;139733;-88
2024/01/03 19:18:57;;;;;;;15.50;6.30;;;;;;;8.29;100.00;98130.82;215889;1287;140073;-88
2024/01/03 19:23:57;;;;;;;19.60;5.30;;;;;;;8.29;100.00;98127.38;215617;1287;140875;-89
2024/01/03 19:28:58;;;;;;;14.40;5.30;;;;;;;8.29;100.00;98124.79;216165;1286;139428;-88
2024/01/03 19:34:01;;;;;;;13.00;5.30;;;;;;;8.28;100.00;98126.77;216422;1286;139381;-90
2024/01/03 19:39:02;;;;;;;11.00;3.90;;;;;;;8.28;100.00;98125.98;218237;1286;138602;-89
2024/01/03 19:44:12;;;;;;;10.20;3.40;;;;;;;8.27;100.00;98125.91;216712;1286;139641;-87
2024/01/03 19:49:13;;;;;;;10.00;3.20;;;;;;;8.26;100.00;98128.53;214278;1291;138782;-87
2024/01/03 19:54:14;;;;;;;9.40;3.40;;;;;;;8.25;100.00;98131.05;214365;1288;139917;-91
2024/01/03 19:59:14;;;;;;;9.50;3.30;;;;;;;8.23;100.00;98130.84;214444;1286;138371;-87
2024/01/03 20:04:15;;;;;;;11.70;4.10;;;;;;;8.22;100.00;98126.95;214030;1288;139430;-87
2024/01/03 20:09:17;;;;;;;12.50;4.00;;;;;;;8.21;100.00;98126.81;214430;1288;138749;-87
2024/01/03 20:14:18;;;;;;;12.60;5.00;;;;;;;8.19;100.00;98125.33;213517;1290;139462;-88
2024/01/03 20:19:18;;;;;;;11.90;4.50;;;;;;;8.18;100.00;98128.85;214569;1288;139459;-88
2024/01/03 20:24:24;;;;;;;10.30;4.30;;;;;;;8.16;100.00;98128.96;214151;1290;139368;-87
2024/01/03 20:29:25;;;;;;;18.70;7.00;;;;;;;8.15;100.00;98129.14;214455;1290;139049;-87
2024/01/03 20:34:25;;;;;;;14.80;5.90;;;;;;;8.13;100.00;98124.17;214353;1291;140289;-88
2024/01/03 20:39:28;;;;;;;13.70;4.30;;;;;;;8.11;100.00;98123.33;215006;1286;139112;-89
2024/01/03 20:44:39;;;;;;;13.50;4.40;;;;;;;8.10;100.00;98123.60;214918;1288;139993;-87
2024/01/03 20:49:39;;;;;;;11.90;3.80;;;;;;;8.07;100.00;98119.24;215536;1286;137672;-88
2024/01/03 20:54:43;;;;;;;13.50;4.00;;;;;;;8.06;100.00;98121.92;214792;1287;140521;-88
2024/01/03 20:59:44;;;;;;;15.40;4.80;;;;;;;8.05;100.00;98120.31;215438;1286;98847;-87
2024/01/03 21:04:45;;;;;;;16.70;6.60;;;;;;;8.03;100.00;98123.16;214918;1286;140434;-88
2024/01/03 21:09:46;;;;;;;16.20;6.50;;;;;;;8.01;100.00;98123.90;215340;1290;140573;-87
2024/01/03 21:14:47;;;;;;;14.30;6.10;;;;;;;7.99;100.00;98119.31;215529;1286;139224;-87
2024/01/03 21:19:47;;;;;;;16.40;5.40;;;;;;;7.98;100.00;98125.66;216888;1287;139468;-88
2024/01/03 21:24:48;;;;;;;17.70;7.30;;;;;;;7.98;100.00;98124.10;217831;1288;139835;-88
2024/01/03 21:29:52;;;;;;;19.20;5.70;;;;;;;7.96;100.00;98115.13;216585;1287;139945;-88
2024/01/03 21:34:52;;;;;;;17.90;6.00;;;;;;;7.94;100.00;98108.89;214527;1288;139033;-90
2024/01/03 21:39:53;;;;;;;17.30;6.20;;;;;;;7.95;100.00;98114.91;213794;1286;140879;-91
2024/01/03 21:44:55;;;;;;;15.30;6.60;;;;;;;7.93;100.00;98117.28;214297;1286;138569;-90
2024/01/03 21:49:55;;;;;;;15.80;6.90;;;;;;;7.91;100.00;98114.02;214095;1287;283890;-88
2024/01/03 21:54:58;;;;;;;18.70;6.80;;;;;;;7.90;100.00;98111.63;214537;1288;138537;-88
2024/01/03 21:59:58;;;;;;;21.00;7.40;;;;;;;7.87;100.00;98112.06;214121;1287;140030;-88
2024/01/03 22:05:03;;;;;;;17.70;6.90;;;;;;;7.86;100.00;98110.66;215277;1286;138617;-89
2024/01/03 22:10:04;;;;;;;15.60;6.20;;;;;;;7.85;100.00;98109.89;214365;1286;139437;-88
2024/01/03 22:15:08;;;;;;;18.60;7.50;;;;;;;7.85;100.00;98106.30;215378;1288;138553;-89
2024/01/03 22:20:10;;;;;;;16.90;6.60;;;;;;;7.84;100.00;98104.91;215183;1290;139566;-87
2024/01/03 22:25:13;;;;;;;19.90;6.60;;;;;;;7.84;100.00;98102.63;216039;1290;139949;-90
2024/01/03 22:30:16;;;;;;;11.70;5.60;;;;;;;7.83;100.00;98100.30;216173;1287;139980;-90
2024/01/03 22:35:20;;;;;;;20.50;5.40;;;;;;;7.83;100.00;98093.27;216331;1288;138709;-88
2024/01/03 22:40:21;;;;;;;17.30;5.50;;;;;;;7.81;100.00;98093.23;215969;1290;140466;-90
2024/01/03 22:45:24;;;;;;;15.10;5.50;;;;;;;7.78;100.00;98091.25;216299;1286;138168;-89
2024/01/03 22:50:28;;;;;;;15.70;6.30;;;;;;;7.75;100.00;98093.23;215738;1288;139818;-90